sensor_id;sensor_type;location;lat;lon;timestamp;temperature;humidity
4425;DHT22;2225;53.568;13.266;2023-06-05T00:02:08;17.00;74.80
4425;DHT22;2225;53.568;13.266;2023-06-05T00:04:35;17.00;75.20
4425;DHT22;2225;53.568;13.266;2023-06-05T00:07:02;17.00;75.00
4425;DHT22;2225;53.568;13.266;2023-06-05T00:09:29;16.90;75.60
4425;DHT22;2225;53.568;13.266;2023-06-05T00:11:56;16.90;75.90
4425;DHT22;2225;53.568;13.266;2023-06-05T00:14:23;16.80;75.80
4425;DHT22;2225;53.568;13.266;2023-06-05T00:16:50;16.80;75.80
4425;DHT22;2225;53.568;13.266;2023-06-05T00:19:18;16.80;76.00
4425;DHT22;2225;53.568;13.266;2023-06-05T00:21:45;16.70;76.20
4425;DHT22;2225;53.568;13.266;2023-06-05T00:24:12;16.70;76.10
4425;DHT22;2225;53.568;13.266;2023-06-05T00:26:39;16.60;75.90
4425;DHT22;2225;53.568;13.266;2023-06-05T00:29:06;16.60;76.50
4425;DHT22;2225;53.568;13.266;2023-06-05T00:31:33;16.60;75.70
4425;DHT22;2225;53.568;13.266;2023-06-05T00:34:00;16.60;76.10
4425;DHT22;2225;53.568;13.266;2023-06-05T00:36:27;16.50;76.30
4425;DHT22;2225;53.568;13.266;2023-06-05T00:38:56;16.40;76.60
4425;DHT22;2225;53.568;13.266;2023-06-05T00:41:23;16.40;77.10
4425;DHT22;2225;53.568;13.266;2023-06-05T00:43:50;16.40;77.10
4425;DHT22;2225;53.568;13.266;2023-06-05T00:46:17;16.40;77.00
4425;DHT22;2225;53.568;13.266;2023-06-05T00:48:45;16.30;77.30
4425;DHT22;2225;53.568;13.266;2023-06-05T00:51:15;16.30;77.50
4425;DHT22;2225;53.568;13.266;2023-06-05T00:53:45;16.30;77.40
4425;DHT22;2225;53.568;13.266;2023-06-05T00:56:13;16.30;77.90
4425;DHT22;2225;53.568;13.266;2023-06-05T00:58:40;16.20;78.30
4425;DHT22;2225;53.568;13.266;2023-06-05T01:01:09;16.10;78.40
4425;DHT22;2225;53.568;13.266;2023-06-05T01:03:38;16.20;78.50
4425;DHT22;2225;53.568;13.266;2023-06-05T01:06:06;16.10;78.40
4425;DHT22;2225;53.568;13.266;2023-06-05T01:08:34;16.10;78.40
4425;DHT22;2225;53.568;13.266;2023-06-05T01:11:28;16.00;78.70
4425;DHT22;2225;53.568;13.266;2023-06-05T01:14:17;16.00;79.40
4425;DHT22;2225;53.568;13.266;2023-06-05T01:16:54;15.90;78.70
4425;DHT22;2225;53.568;13.266;2023-06-05T01:19:24;15.90;78.80
4425;DHT22;2225;53.568;13.266;2023-06-05T01:21:55;15.80;78.50
4425;DHT22;2225;53.568;13.266;2023-06-05T01:24:22;15.80;78.60
4425;DHT22;2225;53.568;13.266;2023-06-05T01:29:36;15.70;79.10
4425;DHT22;2225;53.568;13.266;2023-06-05T01:32:36;15.70;79.00
4425;DHT22;2225;53.568;13.266;2023-06-05T01:35:09;15.60;80.00
4425;DHT22;2225;53.568;13.266;2023-06-05T01:37:40;15.60;79.30
4425;DHT22;2225;53.568;13.266;2023-06-05T01:40:13;15.50;79.50
4425;DHT22;2225;53.568;13.266;2023-06-05T01:42:42;15.50;80.30
4425;DHT22;2225;53.568;13.266;2023-06-05T01:45:11;15.50;79.80
4425;DHT22;2225;53.568;13.266;2023-06-05T01:47:38;15.40;80.00
4425;DHT22;2225;53.568;13.266;2023-06-05T01:50:07;15.40;80.30
4425;DHT22;2225;53.568;13.266;2023-06-05T01:52:42;15.30;80.40
4425;DHT22;2225;53.568;13.266;2023-06-05T01:55:17;15.30;80.40
4425;DHT22;2225;53.568;13.266;2023-06-05T01:57:51;15.30;80.70
4425;DHT22;2225;53.568;13.266;2023-06-05T02:00:18;15.30;80.40
4425;DHT22;2225;53.568;13.266;2023-06-05T02:02:47;15.20;80.40
4425;DHT22;2225;53.568;13.266;2023-06-05T02:05:17;15.20;80.60
4425;DHT22;2225;53.568;13.266;2023-06-05T02:07:47;15.10;80.80
4425;DHT22;2225;53.568;13.266;2023-06-05T02:10:16;15.10;81.10
4425;DHT22;2225;53.568;13.266;2023-06-05T02:12:46;15.10;81.20
4425;DHT22;2225;53.568;13.266;2023-06-05T02:15:13;15.00;81.30
4425;DHT22;2225;53.568;13.266;2023-06-05T02:17:43;15.00;81.50
4425;DHT22;2225;53.568;13.266;2023-06-05T02:20:18;14.90;82.10
4425;DHT22;2225;53.568;13.266;2023-06-05T02:22:48;14.90;81.80
4425;DHT22;2225;53.568;13.266;2023-06-05T02:25:19;14.80;81.90
4425;DHT22;2225;53.568;13.266;2023-06-05T02:27:48;14.80;82.10
4425;DHT22;2225;53.568;13.266;2023-06-05T02:30:15;14.70;82.40
4425;DHT22;2225;53.568;13.266;2023-06-05T02:32:42;14.70;82.40
4425;DHT22;2225;53.568;13.266;2023-06-05T02:35:13;14.70;82.70
4425;DHT22;2225;53.568;13.266;2023-06-05T02:37:41;14.60;82.80
4425;DHT22;2225;53.568;13.266;2023-06-05T02:40:12;14.70;82.80
4425;DHT22;2225;53.568;13.266;2023-06-05T02:42:40;14.60;83.20
4425;DHT22;2225;53.568;13.266;2023-06-05T02:45:08;14.60;83.20
4425;DHT22;2225;53.568;13.266;2023-06-05T02:47:36;14.60;83.00
4425;DHT22;2225;53.568;13.266;2023-06-05T02:50:05;14.50;82.50
4425;DHT22;2225;53.568;13.266;2023-06-05T02:52:36;14.50;82.50
4425;DHT22;2225;53.568;13.266;2023-06-05T02:55:12;14.50;82.60
4425;DHT22;2225;53.568;13.266;2023-06-05T02:57:41;14.50;83.00
4425;DHT22;2225;53.568;13.266;2023-06-05T03:00:13;14.40;83.50
4425;DHT22;2225;53.568;13.266;2023-06-05T03:02:48;14.40;83.50
4425;DHT22;2225;53.568;13.266;2023-06-05T03:05:19;14.40;83.50
4425;DHT22;2225;53.568;13.266;2023-06-05T03:07:59;14.40;83.90
4425;DHT22;2225;53.568;13.266;2023-06-05T03:10:27;14.40;84.10
4425;DHT22;2225;53.568;13.266;2023-06-05T03:12:55;14.40;84.40
4425;DHT22;2225;53.568;13.266;2023-06-05T03:15:24;14.40;84.50
4425;DHT22;2225;53.568;13.266;2023-06-05T03:17:52;14.40;84.40
4425;DHT22;2225;53.568;13.266;2023-06-05T03:20:21;14.30;84.20
4425;DHT22;2225;53.568;13.266;2023-06-05T03:22:48;14.40;84.20
4425;DHT22;2225;53.568;13.266;2023-06-05T03:25:16;14.30;84.10
4425;DHT22;2225;53.568;13.266;2023-06-05T03:27:44;14.40;83.70
4425;DHT22;2225;53.568;13.266;2023-06-05T03:30:13;14.40;83.40
4425;DHT22;2225;53.568;13.266;2023-06-05T03:32:46;14.40;83.50
4425;DHT22;2225;53.568;13.266;2023-06-05T03:35:14;14.40;83.30
4425;DHT22;2225;53.568;13.266;2023-06-05T03:37:41;14.40;83.30
4425;DHT22;2225;53.568;13.266;2023-06-05T03:40:09;14.40;83.40
4425;DHT22;2225;53.568;13.266;2023-06-05T03:42:37;14.50;83.40
4425;DHT22;2225;53.568;13.266;2023-06-05T03:45:05;14.50;83.20
4425;DHT22;2225;53.568;13.266;2023-06-05T03:47:32;14.50;83.20
4425;DHT22;2225;53.568;13.266;2023-06-05T03:50:03;14.50;83.10
4425;DHT22;2225;53.568;13.266;2023-06-05T03:52:35;14.60;83.00
4425;DHT22;2225;53.568;13.266;2023-06-05T03:55:05;14.60;82.90
4425;DHT22;2225;53.568;13.266;2023-06-05T03:57:35;14.60;82.90
4425;DHT22;2225;53.568;13.266;2023-06-05T04:00:06;14.70;83.60
4425;DHT22;2225;53.568;13.266;2023-06-05T04:02:45;14.80;84.20
4425;DHT22;2225;53.568;13.266;2023-06-05T04:05:14;15.10;84.70
4425;DHT22;2225;53.568;13.266;2023-06-05T04:07:41;15.30;84.80
4425;DHT22;2225;53.568;13.266;2023-06-05T04:10:09;15.60;84.30
4425;DHT22;2225;53.568;13.266;2023-06-05T04:12:36;15.90;83.50
4425;DHT22;2225;53.568;13.266;2023-06-05T04:15:05;16.20;83.00
4425;DHT22;2225;53.568;13.266;2023-06-05T04:17:33;16.50;82.40
4425;DHT22;2225;53.568;13.266;2023-06-05T04:20:00;16.80;81.50
4425;DHT22;2225;53.568;13.266;2023-06-05T04:22:27;17.10;80.60
4425;DHT22;2225;53.568;13.266;2023-06-05T04:24:55;17.40;80.10
4425;DHT22;2225;53.568;13.266;2023-06-05T04:27:22;17.70;79.50
4425;DHT22;2225;53.568;13.266;2023-06-05T04:29:54;18.00;78.20
4425;DHT22;2225;53.568;13.266;2023-06-05T04:32:21;18.30;77.20
4425;DHT22;2225;53.568;13.266;2023-06-05T04:34:49;18.50;76.00
4425;DHT22;2225;53.568;13.266;2023-06-05T04:37:17;18.70;74.70
4425;DHT22;2225;53.568;13.266;2023-06-05T04:39:44;18.80;73.70
4425;DHT22;2225;53.568;13.266;2023-06-05T04:42:11;19.00;72.90
4425;DHT22;2225;53.568;13.266;2023-06-05T04:44:42;19.00;72.40
4425;DHT22;2225;53.568;13.266;2023-06-05T04:47:09;19.00;71.70
4425;DHT22;2225;53.568;13.266;2023-06-05T04:49:37;19.10;71.40
4425;DHT22;2225;53.568;13.266;2023-06-05T04:52:05;19.10;70.90
4425;DHT22;2225;53.568;13.266;2023-06-05T04:54:33;19.10;70.60
4425;DHT22;2225;53.568;13.266;2023-06-05T04:57:00;19.00;70.60
4425;DHT22;2225;53.568;13.266;2023-06-05T04:59:28;19.00;70.80
4425;DHT22;2225;53.568;13.266;2023-06-05T05:01:55;18.90;70.70
4425;DHT22;2225;53.568;13.266;2023-06-05T05:04:23;18.90;70.60
4425;DHT22;2225;53.568;13.266;2023-06-05T05:06:52;18.80;70.80
4425;DHT22;2225;53.568;13.266;2023-06-05T05:09:21;18.70;70.90
4425;DHT22;2225;53.568;13.266;2023-06-05T05:11:50;18.70;70.80
4425;DHT22;2225;53.568;13.266;2023-06-05T05:14:17;18.70;71.00
4425;DHT22;2225;53.568;13.266;2023-06-05T05:16:44;18.70;71.20
4425;DHT22;2225;53.568;13.266;2023-06-05T05:19:12;18.70;71.20
4425;DHT22;2225;53.568;13.266;2023-06-05T05:21:39;18.60;71.20
4425;DHT22;2225;53.568;13.266;2023-06-05T05:24:07;18.60;71.20
4425;DHT22;2225;53.568;13.266;2023-06-05T05:26:35;18.60;70.70
4425;DHT22;2225;53.568;13.266;2023-06-05T05:29:02;18.60;70.30
4425;DHT22;2225;53.568;13.266;2023-06-05T05:31:29;18.60;70.00
4425;DHT22;2225;53.568;13.266;2023-06-05T05:33:57;18.60;70.00
4425;DHT22;2225;53.568;13.266;2023-06-05T05:36:25;18.60;70.10
4425;DHT22;2225;53.568;13.266;2023-06-05T05:38:53;18.70;69.50
4425;DHT22;2225;53.568;13.266;2023-06-05T05:41:20;18.80;69.20
4425;DHT22;2225;53.568;13.266;2023-06-05T05:43:47;18.80;67.90
4425;DHT22;2225;53.568;13.266;2023-06-05T05:46:14;18.80;68.10
4425;DHT22;2225;53.568;13.266;2023-06-05T05:48:41;18.90;67.50
4425;DHT22;2225;53.568;13.266;2023-06-05T05:51:08;18.90;67.70
4425;DHT22;2225;53.568;13.266;2023-06-05T05:53:35;19.00;68.10
4425;DHT22;2225;53.568;13.266;2023-06-05T05:56:03;19.10;68.30
4425;DHT22;2225;53.568;13.266;2023-06-05T05:58:30;19.20;68.30
4425;DHT22;2225;53.568;13.266;2023-06-05T06:00:58;19.30;69.60
4425;DHT22;2225;53.568;13.266;2023-06-05T06:03:26;19.40;70.70
4425;DHT22;2225;53.568;13.266;2023-06-05T06:05:57;19.50;71.80
4425;DHT22;2225;53.568;13.266;2023-06-05T06:08:24;19.60;72.10
4425;DHT22;2225;53.568;13.266;2023-06-05T06:10:53;19.70;72.10
4425;DHT22;2225;53.568;13.266;2023-06-05T06:13:21;19.80;72.10
4425;DHT22;2225;53.568;13.266;2023-06-05T06:15:48;19.90;71.20
4425;DHT22;2225;53.568;13.266;2023-06-05T06:18:15;20.00;66.40
4425;DHT22;2225;53.568;13.266;2023-06-05T06:20:42;20.10;66.70
4425;DHT22;2225;53.568;13.266;2023-06-05T06:23:09;20.20;62.50
4425;DHT22;2225;53.568;13.266;2023-06-05T06:25:37;20.30;62.90
4425;DHT22;2225;53.568;13.266;2023-06-05T06:28:04;20.50;62.20
4425;DHT22;2225;53.568;13.266;2023-06-05T06:30:32;20.60;61.50
4425;DHT22;2225;53.568;13.266;2023-06-05T06:33:00;20.70;60.80
4425;DHT22;2225;53.568;13.266;2023-06-05T06:35:27;20.80;59.60
4425;DHT22;2225;53.568;13.266;2023-06-05T06:37:56;20.90;56.50
4425;DHT22;2225;53.568;13.266;2023-06-05T06:40:24;21.00;57.50
4425;DHT22;2225;53.568;13.266;2023-06-05T06:42:51;21.20;57.20
4425;DHT22;2225;53.568;13.266;2023-06-05T06:45:32;21.30;55.70
4425;DHT22;2225;53.568;13.266;2023-06-05T06:47:59;21.40;54.80
4425;DHT22;2225;53.568;13.266;2023-06-05T06:50:32;21.50;54.90
4425;DHT22;2225;53.568;13.266;2023-06-05T06:52:58;21.60;55.10
4425;DHT22;2225;53.568;13.266;2023-06-05T06:55:26;21.70;53.90
4425;DHT22;2225;53.568;13.266;2023-06-05T06:57:53;21.80;55.10
4425;DHT22;2225;53.568;13.266;2023-06-05T07:00:20;22.00;53.60
4425;DHT22;2225;53.568;13.266;2023-06-05T07:02:47;22.00;53.80
4425;DHT22;2225;53.568;13.266;2023-06-05T07:05:15;22.20;54.00
4425;DHT22;2225;53.568;13.266;2023-06-05T07:07:42;22.30;54.40
4425;DHT22;2225;53.568;13.266;2023-06-05T07:10:09;22.40;53.50
4425;DHT22;2225;53.568;13.266;2023-06-05T07:12:36;22.50;54.00
4425;DHT22;2225;53.568;13.266;2023-06-05T07:15:03;22.50;54.40
4425;DHT22;2225;53.568;13.266;2023-06-05T07:17:30;22.70;55.00
4425;DHT22;2225;53.568;13.266;2023-06-05T07:19:58;22.80;55.10
4425;DHT22;2225;53.568;13.266;2023-06-05T07:22:26;22.80;54.60
4425;DHT22;2225;53.568;13.266;2023-06-05T07:24:57;23.00;54.40
4425;DHT22;2225;53.568;13.266;2023-06-05T07:27:24;23.00;54.70
4425;DHT22;2225;53.568;13.266;2023-06-05T07:29:51;23.10;54.70
4425;DHT22;2225;53.568;13.266;2023-06-05T07:32:20;23.20;54.60
4425;DHT22;2225;53.568;13.266;2023-06-05T07:34:47;23.30;54.40
4425;DHT22;2225;53.568;13.266;2023-06-05T07:37:15;23.40;53.90
4425;DHT22;2225;53.568;13.266;2023-06-05T07:39:42;23.50;53.20
4425;DHT22;2225;53.568;13.266;2023-06-05T07:42:09;23.60;53.00
4425;DHT22;2225;53.568;13.266;2023-06-05T07:44:36;23.70;51.90
4425;DHT22;2225;53.568;13.266;2023-06-05T07:47:03;23.80;52.30
4425;DHT22;2225;53.568;13.266;2023-06-05T07:49:30;23.90;51.80
4425;DHT22;2225;53.568;13.266;2023-06-05T07:52:00;24.00;51.40
4425;DHT22;2225;53.568;13.266;2023-06-05T07:54:27;24.20;50.10
4425;DHT22;2225;53.568;13.266;2023-06-05T07:56:54;24.20;49.90
4425;DHT22;2225;53.568;13.266;2023-06-05T07:59:24;24.30;49.80
4425;DHT22;2225;53.568;13.266;2023-06-05T08:01:54;24.40;49.50
4425;DHT22;2225;53.568;13.266;2023-06-05T08:04:26;24.50;49.00
4425;DHT22;2225;53.568;13.266;2023-06-05T08:06:54;24.60;49.30
4425;DHT22;2225;53.568;13.266;2023-06-05T08:09:21;24.60;49.00
4425;DHT22;2225;53.568;13.266;2023-06-05T08:11:48;24.80;48.50
4425;DHT22;2225;53.568;13.266;2023-06-05T08:14:15;24.80;48.50
4425;DHT22;2225;53.568;13.266;2023-06-05T08:16:43;24.90;48.90
4425;DHT22;2225;53.568;13.266;2023-06-05T08:19:10;25.00;48.80
4425;DHT22;2225;53.568;13.266;2023-06-05T08:21:37;25.10;48.60
4425;DHT22;2225;53.568;13.266;2023-06-05T08:24:04;25.20;48.50
4425;DHT22;2225;53.568;13.266;2023-06-05T08:26:31;25.30;48.90
4425;DHT22;2225;53.568;13.266;2023-06-05T08:28:59;25.40;48.80
4425;DHT22;2225;53.568;13.266;2023-06-05T08:31:26;25.50;47.50
4425;DHT22;2225;53.568;13.266;2023-06-05T08:33:53;25.50;47.50
4425;DHT22;2225;53.568;13.266;2023-06-05T08:36:21;25.60;46.70
4425;DHT22;2225;53.568;13.266;2023-06-05T08:38:48;25.70;46.70
4425;DHT22;2225;53.568;13.266;2023-06-05T08:41:15;25.70;46.70
4425;DHT22;2225;53.568;13.266;2023-06-05T08:43:44;25.80;46.70
4425;DHT22;2225;53.568;13.266;2023-06-05T08:46:12;25.80;46.70
4425;DHT22;2225;53.568;13.266;2023-06-05T08:48:44;25.80;46.50
4425;DHT22;2225;53.568;13.266;2023-06-05T08:51:15;25.90;46.20
4425;DHT22;2225;53.568;13.266;2023-06-05T08:53:50;25.90;46.00
4425;DHT22;2225;53.568;13.266;2023-06-05T08:56:25;25.90;44.70
4425;DHT22;2225;53.568;13.266;2023-06-05T08:58:54;26.00;44.80
4425;DHT22;2225;53.568;13.266;2023-06-05T09:01:22;26.10;45.20
4425;DHT22;2225;53.568;13.266;2023-06-05T09:03:49;26.10;45.30
4425;DHT22;2225;53.568;13.266;2023-06-05T09:06:16;26.20;45.40
4425;DHT22;2225;53.568;13.266;2023-06-05T09:08:43;26.30;45.40
4425;DHT22;2225;53.568;13.266;2023-06-05T09:11:26;26.50;45.50
4425;DHT22;2225;53.568;13.266;2023-06-05T09:13:56;26.50;45.20
4425;DHT22;2225;53.568;13.266;2023-06-05T09:16:38;26.60;44.40
4425;DHT22;2225;53.568;13.266;2023-06-05T09:19:10;26.60;43.20
4425;DHT22;2225;53.568;13.266;2023-06-05T09:21:40;26.70;42.90
4425;DHT22;2225;53.568;13.266;2023-06-05T09:24:14;26.80;42.70
4425;DHT22;2225;53.568;13.266;2023-06-05T09:26:47;26.90;43.20
4425;DHT22;2225;53.568;13.266;2023-06-05T09:31:57;27.10;42.80
4425;DHT22;2225;53.568;13.266;2023-06-05T09:36:57;27.20;43.20
4425;DHT22;2225;53.568;13.266;2023-06-05T09:39:27;27.20;42.20
4425;DHT22;2225;53.568;13.266;2023-06-05T09:41:57;27.30;42.40
4425;DHT22;2225;53.568;13.266;2023-06-05T09:44:26;27.30;42.20
4425;DHT22;2225;53.568;13.266;2023-06-05T09:46:58;27.40;41.70
4425;DHT22;2225;53.568;13.266;2023-06-05T09:49:30;27.40;41.30
4425;DHT22;2225;53.568;13.266;2023-06-05T09:52:13;27.40;41.30
4425;DHT22;2225;53.568;13.266;2023-06-05T09:54:42;27.40;41.60
4425;DHT22;2225;53.568;13.266;2023-06-05T09:57:13;27.50;41.30
4425;DHT22;2225;53.568;13.266;2023-06-05T09:59:50;27.50;41.10
4425;DHT22;2225;53.568;13.266;2023-06-05T10:02:24;27.50;40.80
4425;DHT22;2225;53.568;13.266;2023-06-05T10:04:59;27.50;41.20
4425;DHT22;2225;53.568;13.266;2023-06-05T10:07:30;27.60;41.10
4425;DHT22;2225;53.568;13.266;2023-06-05T10:09:58;27.60;41.30
4425;DHT22;2225;53.568;13.266;2023-06-05T10:12:25;27.70;41.60
4425;DHT22;2225;53.568;13.266;2023-06-05T10:14:54;27.80;41.30
4425;DHT22;2225;53.568;13.266;2023-06-05T10:17:22;27.80;41.20
4425;DHT22;2225;53.568;13.266;2023-06-05T10:19:50;27.90;41.00
4425;DHT22;2225;53.568;13.266;2023-06-05T10:22:18;27.90;41.00
4425;DHT22;2225;53.568;13.266;2023-06-05T10:24:52;27.90;40.50
4425;DHT22;2225;53.568;13.266;2023-06-05T10:27:32;28.00;41.10
4425;DHT22;2225;53.568;13.266;2023-06-05T10:33:17;28.10;40.40
4425;DHT22;2225;53.568;13.266;2023-06-05T10:36:25;28.10;40.10
4425;DHT22;2225;53.568;13.266;2023-06-05T10:39:09;28.20;39.80
4425;DHT22;2225;53.568;13.266;2023-06-05T10:41:37;28.10;40.10
4425;DHT22;2225;53.568;13.266;2023-06-05T10:44:04;28.20;39.70
4425;DHT22;2225;53.568;13.266;2023-06-05T10:46:37;28.20;39.90
4425;DHT22;2225;53.568;13.266;2023-06-05T10:51:45;28.30;40.30
4425;DHT22;2225;53.568;13.266;2023-06-05T10:57:03;28.40;39.80
4425;DHT22;2225;53.568;13.266;2023-06-05T10:59:35;28.50;39.20
4425;DHT22;2225;53.568;13.266;2023-06-05T11:07:25;28.60;39.40
4425;DHT22;2225;53.568;13.266;2023-06-05T11:17:44;28.60;39.30
4425;DHT22;2225;53.568;13.266;2023-06-05T11:28:00;28.90;38.10
4425;DHT22;2225;53.568;13.266;2023-06-05T11:30:31;28.90;38.70
4425;DHT22;2225;53.568;13.266;2023-06-05T11:33:15;29.00;38.30
4425;DHT22;2225;53.568;13.266;2023-06-05T11:35:45;29.00;38.20
4425;DHT22;2225;53.568;13.266;2023-06-05T11:40:48;29.10;37.70
4425;DHT22;2225;53.568;13.266;2023-06-05T11:43:15;29.10;37.60
4425;DHT22;2225;53.568;13.266;2023-06-05T11:45:55;29.20;37.90
4425;DHT22;2225;53.568;13.266;2023-06-05T11:48:24;29.30;37.90
4425;DHT22;2225;53.568;13.266;2023-06-05T11:51:03;29.30;38.00
4425;DHT22;2225;53.568;13.266;2023-06-05T11:53:32;29.30;38.00
4425;DHT22;2225;53.568;13.266;2023-06-05T11:56:00;29.40;38.00
4425;DHT22;2225;53.568;13.266;2023-06-05T11:58:31;29.40;37.80
4425;DHT22;2225;53.568;13.266;2023-06-05T12:01:12;29.50;37.50
4425;DHT22;2225;53.568;13.266;2023-06-05T12:04:02;29.50;37.80
4425;DHT22;2225;53.568;13.266;2023-06-05T12:06:31;29.60;37.70
4425;DHT22;2225;53.568;13.266;2023-06-05T12:09:12;29.70;37.30
4425;DHT22;2225;53.568;13.266;2023-06-05T12:11:42;29.70;36.80
4425;DHT22;2225;53.568;13.266;2023-06-05T12:14:12;29.70;37.50
4425;DHT22;2225;53.568;13.266;2023-06-05T12:16:40;29.70;37.60
4425;DHT22;2225;53.568;13.266;2023-06-05T12:19:18;29.70;37.70
4425;DHT22;2225;53.568;13.266;2023-06-05T12:21:49;29.70;37.80
4425;DHT22;2225;53.568;13.266;2023-06-05T12:24:25;29.80;37.90
4425;DHT22;2225;53.568;13.266;2023-06-05T12:26:55;29.80;37.40
4425;DHT22;2225;53.568;13.266;2023-06-05T12:29:26;29.90;37.30
4425;DHT22;2225;53.568;13.266;2023-06-05T12:31:59;29.80;37.60
4425;DHT22;2225;53.568;13.266;2023-06-05T12:34:40;29.80;37.40
4425;DHT22;2225;53.568;13.266;2023-06-05T12:37:26;29.90;37.30
4425;DHT22;2225;53.568;13.266;2023-06-05T12:40:00;29.90;36.90
4425;DHT22;2225;53.568;13.266;2023-06-05T12:42:28;29.90;37.00
4425;DHT22;2225;53.568;13.266;2023-06-05T12:45:02;29.90;37.10
4425;DHT22;2225;53.568;13.266;2023-06-05T12:47:36;29.80;36.60
4425;DHT22;2225;53.568;13.266;2023-06-05T12:50:05;29.70;37.00
4425;DHT22;2225;53.568;13.266;2023-06-05T12:52:34;29.60;36.90
4425;DHT22;2225;53.568;13.266;2023-06-05T12:55:01;29.50;36.60
4425;DHT22;2225;53.568;13.266;2023-06-05T12:57:29;29.40;36.70
4425;DHT22;2225;53.568;13.266;2023-06-05T12:59:57;29.30;37.00
4425;DHT22;2225;53.568;13.266;2023-06-05T13:02:24;29.30;37.30
4425;DHT22;2225;53.568;13.266;2023-06-05T13:04:51;29.20;37.30
4425;DHT22;2225;53.568;13.266;2023-06-05T13:07:19;29.20;37.40
4425;DHT22;2225;53.568;13.266;2023-06-05T13:09:48;29.10;38.10
4425;DHT22;2225;53.568;13.266;2023-06-05T13:12:16;29.10;37.80
4425;DHT22;2225;53.568;13.266;2023-06-05T13:14:43;29.10;37.80
4425;DHT22;2225;53.568;13.266;2023-06-05T13:17:10;29.10;38.50
4425;DHT22;2225;53.568;13.266;2023-06-05T13:19:37;29.10;38.70
4425;DHT22;2225;53.568;13.266;2023-06-05T13:22:04;29.10;38.40
4425;DHT22;2225;53.568;13.266;2023-06-05T13:24:32;29.20;38.20
4425;DHT22;2225;53.568;13.266;2023-06-05T13:26:59;29.20;37.80
4425;DHT22;2225;53.568;13.266;2023-06-05T13:29:26;29.30;38.00
4425;DHT22;2225;53.568;13.266;2023-06-05T13:31:53;29.40;37.60
4425;DHT22;2225;53.568;13.266;2023-06-05T13:34:20;29.40;37.40
4425;DHT22;2225;53.568;13.266;2023-06-05T13:36:47;29.60;36.90
4425;DHT22;2225;53.568;13.266;2023-06-05T13:39:16;29.60;37.10
4425;DHT22;2225;53.568;13.266;2023-06-05T13:41:43;29.70;37.20
4425;DHT22;2225;53.568;13.266;2023-06-05T13:44:10;29.70;37.00
4425;DHT22;2225;53.568;13.266;2023-06-05T13:46:37;29.70;36.40
4425;DHT22;2225;53.568;13.266;2023-06-05T13:49:06;29.60;36.60
4425;DHT22;2225;53.568;13.266;2023-06-05T13:51:34;29.80;36.70
4425;DHT22;2225;53.568;13.266;2023-06-05T13:54:01;29.70;36.70
4425;DHT22;2225;53.568;13.266;2023-06-05T13:56:28;29.50;36.40
4425;DHT22;2225;53.568;13.266;2023-06-05T13:58:55;29.50;36.80
4425;DHT22;2225;53.568;13.266;2023-06-05T14:01:24;29.40;36.60
4425;DHT22;2225;53.568;13.266;2023-06-05T14:03:51;29.40;37.10
4425;DHT22;2225;53.568;13.266;2023-06-05T14:06:18;29.30;37.20
4425;DHT22;2225;53.568;13.266;2023-06-05T14:08:46;29.30;37.30
4425;DHT22;2225;53.568;13.266;2023-06-05T14:11:13;29.20;37.00
4425;DHT22;2225;53.568;13.266;2023-06-05T14:13:40;29.10;37.10
4425;DHT22;2225;53.568;13.266;2023-06-05T14:16:09;29.10;37.00
4425;DHT22;2225;53.568;13.266;2023-06-05T14:18:38;29.10;37.10
4425;DHT22;2225;53.568;13.266;2023-06-05T14:21:06;29.00;37.30
4425;DHT22;2225;53.568;13.266;2023-06-05T14:23:33;28.90;37.70
4425;DHT22;2225;53.568;13.266;2023-06-05T14:26:00;28.90;38.00
4425;DHT22;2225;53.568;13.266;2023-06-05T14:28:27;28.90;38.10
4425;DHT22;2225;53.568;13.266;2023-06-05T14:30:54;28.90;37.80
4425;DHT22;2225;53.568;13.266;2023-06-05T14:33:21;28.90;37.80
4425;DHT22;2225;53.568;13.266;2023-06-05T14:35:48;29.00;37.70
4425;DHT22;2225;53.568;13.266;2023-06-05T14:38:15;29.10;36.90
4425;DHT22;2225;53.568;13.266;2023-06-05T14:40:42;29.20;36.40
4425;DHT22;2225;53.568;13.266;2023-06-05T14:43:09;29.30;36.70
4425;DHT22;2225;53.568;13.266;2023-06-05T14:45:36;29.40;36.70
4425;DHT22;2225;53.568;13.266;2023-06-05T14:48:03;29.50;36.70
4425;DHT22;2225;53.568;13.266;2023-06-05T14:50:30;29.50;36.50
4425;DHT22;2225;53.568;13.266;2023-06-05T14:52:57;29.60;36.70
4425;DHT22;2225;53.568;13.266;2023-06-05T14:55:24;29.70;36.80
4425;DHT22;2225;53.568;13.266;2023-06-05T14:57:51;29.80;36.10
4425;DHT22;2225;53.568;13.266;2023-06-05T15:00:18;29.90;35.70
4425;DHT22;2225;53.568;13.266;2023-06-05T15:02:46;30.00;36.00
4425;DHT22;2225;53.568;13.266;2023-06-05T15:05:13;30.00;35.80
4425;DHT22;2225;53.568;13.266;2023-06-05T15:07:41;30.00;35.70
4425;DHT22;2225;53.568;13.266;2023-06-05T15:10:09;30.00;35.80
4425;DHT22;2225;53.568;13.266;2023-06-05T15:12:39;29.90;35.70
4425;DHT22;2225;53.568;13.266;2023-06-05T15:15:07;30.00;35.80
4425;DHT22;2225;53.568;13.266;2023-06-05T15:17:45;29.90;36.00
4425;DHT22;2225;53.568;13.266;2023-06-05T15:20:13;29.90;35.70
4425;DHT22;2225;53.568;13.266;2023-06-05T15:22:40;29.80;35.10
4425;DHT22;2225;53.568;13.266;2023-06-05T15:25:07;29.80;35.10
4425;DHT22;2225;53.568;13.266;2023-06-05T15:27:34;29.70;35.40
4425;DHT22;2225;53.568;13.266;2023-06-05T15:30:02;29.60;35.80
4425;DHT22;2225;53.568;13.266;2023-06-05T15:32:29;29.50;35.80
4425;DHT22;2225;53.568;13.266;2023-06-05T15:34:56;29.40;35.60
4425;DHT22;2225;53.568;13.266;2023-06-05T15:37:23;29.30;35.90
4425;DHT22;2225;53.568;13.266;2023-06-05T15:39:51;29.20;36.30
4425;DHT22;2225;53.568;13.266;2023-06-05T15:42:29;29.20;36.70
4425;DHT22;2225;53.568;13.266;2023-06-05T15:45:13;29.20;36.70
4425;DHT22;2225;53.568;13.266;2023-06-05T15:47:41;29.10;36.90
4425;DHT22;2225;53.568;13.266;2023-06-05T15:50:09;29.10;36.50
4425;DHT22;2225;53.568;13.266;2023-06-05T15:52:38;29.10;37.00
4425;DHT22;2225;53.568;13.266;2023-06-05T15:55:05;29.10;37.30
4425;DHT22;2225;53.568;13.266;2023-06-05T15:57:32;29.10;37.50
4425;DHT22;2225;53.568;13.266;2023-06-05T15:59:59;29.10;37.10
4425;DHT22;2225;53.568;13.266;2023-06-05T16:02:26;29.10;37.30
4425;DHT22;2225;53.568;13.266;2023-06-05T16:04:53;29.20;36.60
4425;DHT22;2225;53.568;13.266;2023-06-05T16:07:20;29.20;36.60
4425;DHT22;2225;53.568;13.266;2023-06-05T16:09:48;29.20;36.50
4425;DHT22;2225;53.568;13.266;2023-06-05T16:12:15;29.20;37.30
4425;DHT22;2225;53.568;13.266;2023-06-05T16:14:42;29.20;38.00
4425;DHT22;2225;53.568;13.266;2023-06-05T16:17:09;29.30;38.20
4425;DHT22;2225;53.568;13.266;2023-06-05T16:19:37;29.40;38.30
4425;DHT22;2225;53.568;13.266;2023-06-05T16:22:04;29.40;38.20
4425;DHT22;2225;53.568;13.266;2023-06-05T16:24:31;29.50;38.40
4425;DHT22;2225;53.568;13.266;2023-06-05T16:27:00;29.60;37.70
4425;DHT22;2225;53.568;13.266;2023-06-05T16:29:29;29.80;38.20
4425;DHT22;2225;53.568;13.266;2023-06-05T16:31:56;29.90;37.90
4425;DHT22;2225;53.568;13.266;2023-06-05T16:34:23;30.10;38.70
4425;DHT22;2225;53.568;13.266;2023-06-05T16:36:50;30.30;39.10
4425;DHT22;2225;53.568;13.266;2023-06-05T16:39:17;30.70;39.50